createdAt,value
2023-02-27T00:03:26.663Z,75.30
2023-02-27T00:07:08.842Z,75.40
2023-02-27T00:10:50.650Z,75.60
2023-02-27T00:14:32.453Z,75.90
2023-02-27T00:18:14.560Z,75.90
2023-02-27T00:21:56.342Z,76.00
2023-02-27T00:25:38.164Z,76.20
2023-02-27T00:29:19.979Z,76.40
2023-02-27T00:33:01.793Z,76.50
2023-02-27T00:36:43.509Z,76.70
2023-02-27T00:40:28.016Z,76.80
2023-02-27T00:44:09.738Z,77.00
2023-02-27T00:47:51.478Z,77.10
2023-02-27T00:51:33.247Z,77.20
2023-02-27T00:55:15.006Z,77.30
2023-02-27T00:58:56.746Z,77.50
2023-02-27T01:02:39.017Z,77.60
2023-02-27T01:06:20.832Z,77.70
2023-02-27T01:10:03.030Z,77.80
2023-02-27T01:13:46.169Z,77.90
2023-02-27T01:17:28.009Z,77.90
2023-02-27T01:21:09.745Z,78.00
2023-02-27T01:24:51.620Z,78.10
2023-02-27T01:28:33.410Z,78.20
2023-02-27T01:32:15.219Z,78.40
2023-02-27T01:35:57.057Z,78.50
2023-02-27T01:39:38.892Z,79.20
2023-02-27T01:43:22.227Z,78.70
2023-02-27T01:47:03.991Z,78.60
2023-02-27T01:50:53.395Z,78.80
2023-02-27T01:54:41.886Z,78.90
2023-02-27T01:58:24.146Z,78.90
2023-02-27T02:02:14.602Z,79.00
2023-02-27T02:05:58.080Z,79.00
2023-02-27T02:09:51.322Z,79.10
2023-02-27T02:13:34.038Z,79.10
2023-02-27T02:17:40.205Z,79.30
2023-02-27T02:21:43.648Z,79.30
2023-02-27T02:25:34.471Z,79.40
2023-02-27T02:29:28.228Z,79.50
2023-02-27T02:33:36.868Z,79.60
2023-02-27T02:37:33.664Z,79.70
2023-02-27T02:41:47.136Z,79.60
2023-02-27T02:45:45.539Z,79.80
2023-02-27T02:49:50.019Z,79.80
2023-02-27T02:54:16.696Z,79.90
2023-02-27T02:58:09.096Z,80.00
2023-02-27T03:02:02.744Z,80.20
2023-02-27T03:05:55.489Z,80.30
2023-02-27T03:09:50.819Z,80.30
2023-02-27T03:13:37.588Z,80.40
2023-02-27T03:17:27.541Z,80.60
2023-02-27T03:21:13.789Z,80.60
2023-02-27T03:24:58.228Z,80.70
2023-02-27T03:28:46.313Z,80.80
2023-02-27T03:32:52.741Z,80.90
2023-02-27T03:36:47.676Z,81.00
2023-02-27T03:40:37.813Z,81.10
2023-02-27T03:44:26.766Z,81.20
2023-02-27T03:48:09.103Z,81.10
2023-02-27T03:51:50.952Z,81.30
2023-02-27T03:55:40.954Z,81.40
2023-02-27T03:59:25.012Z,81.40
2023-02-27T04:03:06.932Z,81.60
2023-02-27T04:07:22.703Z,81.70
2023-02-27T04:11:28.057Z,81.70
2023-02-27T04:15:54.150Z,81.80
2023-02-27T04:19:59.841Z,81.80
2023-02-27T04:23:54.231Z,81.80
2023-02-27T04:27:48.851Z,82.00
2023-02-27T04:31:45.717Z,81.90
2023-02-27T04:35:50.908Z,82.00
2023-02-27T04:39:39.593Z,82.10
2023-02-27T04:43:24.509Z,82.10
2023-02-27T04:47:09.525Z,82.30
2023-02-27T04:51:02.026Z,82.40
2023-02-27T04:54:45.992Z,82.50
2023-02-27T04:58:38.332Z,82.60
2023-02-27T05:02:28.502Z,82.70
2023-02-27T05:06:11.526Z,82.80
2023-02-27T05:09:59.005Z,82.90
2023-02-27T05:13:46.810Z,83.00
2023-02-27T05:17:37.500Z,83.10
2023-02-27T05:21:34.253Z,83.00
2023-02-27T05:25:40.836Z,83.10
2023-02-27T05:29:52.025Z,83.20
2023-02-27T05:33:41.267Z,83.30
2023-02-27T05:37:32.700Z,83.40
2023-02-27T05:41:36.891Z,83.60
2023-02-27T05:45:25.223Z,83.70
2023-02-27T05:49:35.813Z,83.80
2023-02-27T05:53:21.165Z,83.80
2023-02-27T05:57:06.899Z,84.10
2023-02-27T06:00:54.547Z,84.20
2023-02-27T06:04:36.696Z,84.30
2023-02-27T06:08:18.933Z,84.50
2023-02-27T06:12:01.405Z,84.70
2023-02-27T06:15:44.318Z,84.80
2023-02-27T06:19:26.041Z,85.00
2023-02-27T06:23:08.169Z,85.20
2023-02-27T06:26:49.913Z,85.40
2023-02-27T06:30:32.028Z,85.60
2023-02-27T06:34:13.810Z,85.80
2023-02-27T06:37:56.485Z,85.90
2023-02-27T06:41:38.318Z,86.10
2023-02-27T06:45:20.223Z,86.30
2023-02-27T06:49:02.247Z,86.40
2023-02-27T06:52:44.006Z,86.40
2023-02-27T06:56:26.104Z,86.50
2023-02-27T07:00:10.067Z,86.60
2023-02-27T07:03:51.989Z,86.70
2023-02-27T07:07:38.004Z,86.80
2023-02-27T07:11:20.403Z,86.90
2023-02-27T07:15:02.259Z,87.00
2023-02-27T07:18:44.017Z,87.10
2023-02-27T07:22:25.768Z,87.20
2023-02-27T07:26:08.089Z,87.20
2023-02-27T07:29:49.860Z,87.30
2023-02-27T07:33:32.818Z,87.40
2023-02-27T07:37:14.592Z,87.50
2023-02-27T07:40:56.450Z,87.60
2023-02-27T07:44:38.211Z,88.00
2023-02-27T07:48:19.946Z,88.20
2023-02-27T07:52:01.810Z,88.50
2023-02-27T07:55:43.561Z,88.70
2023-02-27T07:59:25.317Z,89.00
2023-02-27T08:03:07.076Z,89.30
2023-02-27T08:06:48.849Z,89.60
2023-02-27T08:10:30.702Z,89.90
2023-02-27T08:14:12.426Z,90.00
2023-02-27T08:17:54.397Z,90.10
2023-02-27T08:21:36.316Z,90.20
2023-02-27T08:25:18.298Z,90.30
2023-02-27T08:29:00.029Z,90.40
2023-02-27T08:32:42.054Z,90.40
2023-02-27T08:36:23.816Z,90.50
2023-02-27T08:40:07.207Z,90.50
2023-02-27T08:43:49.650Z,90.60
2023-02-27T08:47:31.426Z,90.60
2023-02-27T08:51:13.182Z,90.70
2023-02-27T08:54:54.919Z,90.80
2023-02-27T08:58:36.713Z,90.90
2023-02-27T09:02:18.563Z,90.90
2023-02-27T09:06:00.387Z,91.00
2023-02-27T09:09:42.109Z,91.00
2023-02-27T09:13:24.351Z,91.00
2023-02-27T09:17:06.974Z,91.00
2023-02-27T09:20:52.203Z,91.10
2023-02-27T09:24:34.062Z,91.10
2023-02-27T09:28:16.002Z,91.10
2023-02-27T09:31:57.871Z,91.10
2023-02-27T09:35:40.044Z,91.20
2023-02-27T09:39:21.866Z,91.30
2023-02-27T09:43:14.219Z,91.50
2023-02-27T09:46:56.633Z,91.60
2023-02-27T09:50:44.647Z,91.60
2023-02-27T09:54:33.261Z,91.50
2023-02-27T09:58:32.010Z,91.40
2023-02-27T10:02:30.787Z,91.40
2023-02-27T10:06:27.048Z,91.40
2023-02-27T10:10:08.944Z,91.40
2023-02-27T10:13:59.115Z,91.40
2023-02-27T10:17:48.561Z,91.40
2023-02-27T10:21:35.540Z,91.30
2023-02-27T10:25:30.692Z,91.10
2023-02-27T10:29:31.389Z,91.20
2023-02-27T10:33:25.135Z,91.50
2023-02-27T10:37:13.402Z,91.70
2023-02-27T10:40:56.741Z,91.90
2023-02-27T10:44:38.586Z,91.50
2023-02-27T10:48:22.604Z,91.00
2023-02-27T10:52:14.112Z,90.10
2023-02-27T10:56:05.405Z,88.60
2023-02-27T11:00:09.368Z,88.00
2023-02-27T11:03:56.104Z,87.80
2023-02-27T11:07:39.630Z,85.70
2023-02-27T11:11:28.281Z,84.60
2023-02-27T11:15:16.370Z,85.40
2023-02-27T11:18:58.605Z,83.50
2023-02-27T11:22:41.693Z,81.40
2023-02-27T11:26:57.798Z,80.00
2023-02-27T11:30:42.256Z,80.50
2023-02-27T11:34:39.706Z,79.90
2023-02-27T11:38:29.267Z,80.50
2023-02-27T11:42:32.496Z,78.60
2023-02-27T11:46:45.426Z,75.70
2023-02-27T11:50:55.641Z,70.70
2023-02-27T11:54:48.646Z,71.00
2023-02-27T11:58:43.938Z,65.50
2023-02-27T12:02:51.262Z,61.80
2023-02-27T12:06:50.132Z,61.10
2023-02-27T12:10:52.082Z,57.20
2023-02-27T12:14:58.290Z,57.10
2023-02-27T12:18:53.566Z,60.80
2023-02-27T12:22:40.542Z,59.90
2023-02-27T12:26:37.365Z,61.00
2023-02-27T12:30:26.868Z,68.70
2023-02-27T12:34:35.817Z,63.40
2023-02-27T12:38:19.998Z,66.10
2023-02-27T12:42:19.568Z,65.00
2023-02-27T12:46:23.071Z,63.10
2023-02-27T12:50:19.761Z,61.60
2023-02-27T12:54:19.005Z,64.20
2023-02-27T12:58:22.731Z,64.90
2023-02-27T13:02:39.375Z,66.00
2023-02-27T13:06:26.057Z,65.70
2023-02-27T13:10:24.686Z,66.40
2023-02-27T13:14:30.655Z,67.60
2023-02-27T13:18:15.119Z,67.50
2023-02-27T13:22:43.119Z,67.30
2023-02-27T13:26:54.152Z,67.30
2023-02-27T13:30:53.101Z,67.00
2023-02-27T13:34:44.769Z,64.70
2023-02-27T13:38:47.828Z,63.40
2023-02-27T13:42:30.696Z,63.80
2023-02-27T13:46:23.638Z,64.40
2023-02-27T13:50:25.422Z,66.70
2023-02-27T13:54:16.346Z,67.30
2023-02-27T13:58:00.869Z,67.60
2023-02-27T14:01:51.725Z,66.40
2023-02-27T14:05:39.740Z,67.00
2023-02-27T14:09:22.235Z,67.10
2023-02-27T14:13:05.324Z,67.80
2023-02-27T14:16:48.338Z,67.30
2023-02-27T14:20:30.956Z,67.90
2023-02-27T14:24:15.177Z,66.80
2023-02-27T14:27:59.441Z,66.00
2023-02-27T14:31:45.080Z,64.50
2023-02-27T14:35:29.075Z,64.60
2023-02-27T14:39:28.697Z,64.70
2023-02-27T14:43:55.898Z,66.40
2023-02-27T14:47:38.414Z,68.50
2023-02-27T14:51:21.369Z,65.90
2023-02-27T14:55:27.991Z,66.80
2023-02-27T14:59:23.283Z,67.00
2023-02-27T15:03:27.652Z,67.50
2023-02-27T15:07:19.299Z,68.00
2023-02-27T15:11:02.420Z,67.70
2023-02-27T15:14:49.611Z,68.60
2023-02-27T15:18:31.310Z,68.80
2023-02-27T15:22:38.495Z,73.50
2023-02-27T15:26:21.122Z,69.00
2023-02-27T15:30:04.132Z,67.60
2023-02-27T15:33:46.305Z,67.20
2023-02-27T15:37:35.248Z,67.10
2023-02-27T15:41:20.938Z,65.10
2023-02-27T15:45:03.812Z,63.40
2023-02-27T15:48:45.930Z,63.00
2023-02-27T15:52:33.485Z,64.10
2023-02-27T15:56:15.710Z,65.10
2023-02-27T16:00:00.973Z,66.20
2023-02-27T16:03:45.913Z,67.00
2023-02-27T16:11:26.130Z,67.90
2023-02-27T16:15:25.069Z,69.10
2023-02-27T16:19:31.012Z,69.40
2023-02-27T16:23:25.248Z,70.50
2023-02-27T16:27:15.358Z,70.50
2023-02-27T16:31:00.761Z,70.40
2023-02-27T16:34:46.612Z,70.80
2023-02-27T16:38:28.626Z,71.40
2023-02-27T16:42:10.548Z,71.80
2023-02-27T16:45:52.925Z,72.30
2023-02-27T16:49:34.763Z,72.50
2023-02-27T16:53:17.911Z,72.80
2023-02-27T16:56:59.963Z,73.00
2023-02-27T17:00:43.560Z,73.40
2023-02-27T17:04:27.712Z,73.50
2023-02-27T17:08:11.362Z,73.90
2023-02-27T17:11:57.287Z,74.20
2023-02-27T17:15:39.021Z,74.80
2023-02-27T17:19:22.269Z,74.60
2023-02-27T17:23:04.126Z,74.70
2023-02-27T17:26:46.146Z,74.90
2023-02-27T17:30:28.523Z,75.00
2023-02-27T17:34:10.571Z,75.10
2023-02-27T17:37:52.398Z,75.20
2023-02-27T17:41:34.185Z,75.40
2023-02-27T17:45:16.084Z,75.40
2023-02-27T17:49:00.671Z,75.90
2023-02-27T17:52:42.675Z,76.00
2023-02-27T17:56:24.853Z,76.30
2023-02-27T18:00:09.149Z,76.40
2023-02-27T18:03:53.579Z,76.30
2023-02-27T18:07:35.715Z,76.40
2023-02-27T18:11:21.192Z,76.70
2023-02-27T18:15:04.026Z,77.10
2023-02-27T18:18:45.815Z,77.30
2023-02-27T18:22:29.990Z,77.60
2023-02-27T18:26:29.328Z,77.70
2023-02-27T18:30:13.122Z,78.00
2023-02-27T18:33:55.130Z,78.20
2023-02-27T18:37:37.080Z,78.40
2023-02-27T18:41:18.964Z,78.60
2023-02-27T18:45:00.780Z,78.70
2023-02-27T18:48:45.023Z,78.80
2023-02-27T18:52:28.823Z,79.00
2023-02-27T18:56:12.093Z,79.20
2023-02-27T18:59:54.030Z,79.20
2023-02-27T19:11:29.677Z,79.40
2023-02-27T19:15:12.094Z,81.20
2023-02-27T19:18:58.371Z,79.60
2023-02-27T19:22:40.626Z,79.30
2023-02-27T19:26:24.216Z,79.30
2023-02-27T19:30:08.078Z,79.30
2023-02-27T19:33:50.162Z,79.10
2023-02-27T19:37:32.663Z,79.10
2023-02-27T19:41:16.744Z,79.00
2023-02-27T19:44:58.489Z,79.00
2023-02-27T19:48:40.926Z,79.10
2023-02-27T19:52:22.654Z,79.10
2023-02-27T19:56:12.125Z,79.10
2023-02-27T19:59:53.979Z,79.10
2023-02-27T20:03:36.920Z,79.20
2023-02-27T20:07:19.278Z,79.40
2023-02-27T20:11:03.337Z,79.40
2023-02-27T20:14:45.070Z,79.40
2023-02-27T20:18:27.636Z,79.70
2023-02-27T20:22:13.628Z,79.70
2023-02-27T20:25:55.434Z,79.80
2023-02-27T20:29:37.149Z,80.00
2023-02-27T20:33:18.892Z,79.90
2023-02-27T20:37:00.637Z,80.10
2023-02-27T20:40:43.080Z,80.10
2023-02-27T20:44:24.924Z,80.10
2023-02-27T20:48:07.295Z,80.30
2023-02-27T20:51:49.133Z,80.50
2023-02-27T20:55:30.924Z,80.60
2023-02-27T20:59:15.770Z,80.60
2023-02-27T21:02:57.553Z,80.60
2023-02-27T21:06:39.321Z,80.90
2023-02-27T21:10:21.170Z,81.00
2023-02-27T21:14:05.398Z,81.30
2023-02-27T21:17:47.133Z,81.50
2023-02-27T21:21:32.785Z,81.80
2023-02-27T21:25:15.106Z,82.00
2023-02-27T21:29:06.100Z,82.30
2023-02-27T21:32:47.834Z,82.50
2023-02-27T21:36:33.312Z,82.70
2023-02-27T21:40:15.597Z,83.00
2023-02-27T21:44:01.898Z,83.10
2023-02-27T21:47:43.602Z,83.40
2023-02-27T21:51:38.895Z,83.50
2023-02-27T21:55:21.577Z,83.60
2023-02-27T21:59:04.188Z,83.80
2023-02-27T22:02:46.056Z,83.90
2023-02-27T22:06:31.964Z,84.00
2023-02-27T22:10:13.749Z,84.10
2023-02-27T22:13:55.631Z,84.20
2023-02-27T22:17:37.381Z,84.30
2023-02-27T22:21:22.599Z,84.50
2023-02-27T22:25:04.524Z,84.50
2023-02-27T22:28:46.298Z,84.70
2023-02-27T22:32:28.664Z,84.90
2023-02-27T22:36:12.912Z,85.10
2023-02-27T22:39:54.704Z,85.20
2023-02-27T22:43:38.284Z,85.30
2023-02-27T22:47:20.098Z,85.50
2023-02-27T22:51:08.644Z,85.50
2023-02-27T22:54:50.500Z,85.50
2023-02-27T22:58:37.039Z,85.70
2023-02-27T23:02:18.866Z,85.60
2023-02-27T23:06:00.682Z,85.70
2023-02-27T23:09:42.575Z,85.80
2023-02-27T23:13:24.347Z,85.90
2023-02-27T23:17:06.100Z,86.00
2023-02-27T23:20:47.902Z,86.10
2023-02-27T23:24:29.663Z,86.10
2023-02-27T23:28:12.159Z,86.20
2023-02-27T23:31:54.044Z,86.20
2023-02-27T23:35:36.055Z,86.30
2023-02-27T23:39:17.935Z,86.40
2023-02-27T23:42:59.632Z,86.60
2023-02-27T23:46:41.499Z,86.80
2023-02-27T23:50:26.257Z,86.90
2023-02-27T23:54:08.051Z,87.00
2023-02-27T23:57:54.494Z,87.30
